sensor_id;sensor_type;location;lat;lon;timestamp;P1;durP1;ratioP1;P2;durP2;ratioP2
9524;SDS011;15940;48.734;9.112;2022-11-15T00:01:17;5.97;;;4.50;;
9524;SDS011;15940;48.734;9.112;2022-11-15T00:03:45;7.50;;;3.87;;
9524;SDS011;15940;48.734;9.112;2022-11-15T00:06:12;3.83;;;3.10;;
9524;SDS011;15940;48.734;9.112;2022-11-15T00:08:39;3.97;;;3.53;;
9524;SDS011;15940;48.734;9.112;2022-11-15T00:11:06;4.20;;;3.20;;
9524;SDS011;15940;48.734;9.112;2022-11-15T00:13:39;2.87;;;2.67;;
9524;SDS011;15940;48.734;9.112;2022-11-15T00:16:08;3.47;;;2.93;;
9524;SDS011;15940;48.734;9.112;2022-11-15T00:18:37;3.93;;;3.17;;
9524;SDS011;15940;48.734;9.112;2022-11-15T00:21:04;3.80;;;2.90;;
9524;SDS011;15940;48.734;9.112;2022-11-15T00:23:36;2.50;;;2.30;;
9524;SDS011;15940;48.734;9.112;2022-11-15T00:26:03;2.90;;;2.57;;
9524;SDS011;15940;48.734;9.112;2022-11-15T00:28:33;2.70;;;2.50;;
9524;SDS011;15940;48.734;9.112;2022-11-15T00:31:04;3.73;;;2.13;;
9524;SDS011;15940;48.734;9.112;2022-11-15T00:33:37;3.93;;;2.47;;
9524;SDS011;15940;48.734;9.112;2022-11-15T00:36:05;5.60;;;2.40;;
9524;SDS011;15940;48.734;9.112;2022-11-15T00:38:36;3.40;;;2.40;;
9524;SDS011;15940;48.734;9.112;2022-11-15T00:41:06;3.03;;;2.73;;
9524;SDS011;15940;48.734;9.112;2022-11-15T00:43:34;4.73;;;2.40;;
9524;SDS011;15940;48.734;9.112;2022-11-15T00:46:01;2.60;;;2.40;;
9524;SDS011;15940;48.734;9.112;2022-11-15T00:48:29;3.00;;;2.70;;
9524;SDS011;15940;48.734;9.112;2022-11-15T00:50:57;4.03;;;2.40;;
9524;SDS011;15940;48.734;9.112;2022-11-15T00:53:24;3.47;;;2.47;;
9524;SDS011;15940;48.734;9.112;2022-11-15T00:55:51;5.47;;;2.60;;
9524;SDS011;15940;48.734;9.112;2022-11-15T00:58:18;3.40;;;2.40;;
9524;SDS011;15940;48.734;9.112;2022-11-15T01:00:46;3.63;;;2.27;;
9524;SDS011;15940;48.734;9.112;2022-11-15T01:03:13;2.50;;;2.17;;
9524;SDS011;15940;48.734;9.112;2022-11-15T01:05:41;2.60;;;2.40;;
9524;SDS011;15940;48.734;9.112;2022-11-15T01:08:12;2.50;;;2.30;;
9524;SDS011;15940;48.734;9.112;2022-11-15T01:10:40;4.13;;;2.60;;
9524;SDS011;15940;48.734;9.112;2022-11-15T01:13:09;4.03;;;2.10;;
9524;SDS011;15940;48.734;9.112;2022-11-15T01:15:40;2.40;;;2.13;;
9524;SDS011;15940;48.734;9.112;2022-11-15T01:18:08;2.70;;;2.00;;
9524;SDS011;15940;48.734;9.112;2022-11-15T01:20:38;2.13;;;1.93;;
9524;SDS011;15940;48.734;9.112;2022-11-15T01:23:08;2.40;;;2.10;;
9524;SDS011;15940;48.734;9.112;2022-11-15T01:25:36;2.37;;;2.10;;
9524;SDS011;15940;48.734;9.112;2022-11-15T01:28:03;2.30;;;2.10;;
9524;SDS011;15940;48.734;9.112;2022-11-15T01:30:30;2.50;;;2.30;;
9524;SDS011;15940;48.734;9.112;2022-11-15T01:32:57;4.33;;;2.70;;
9524;SDS011;15940;48.734;9.112;2022-11-15T01:35:24;3.17;;;2.60;;
9524;SDS011;15940;48.734;9.112;2022-11-15T01:37:52;2.90;;;2.60;;
9524;SDS011;15940;48.734;9.112;2022-11-15T01:40:19;3.00;;;2.53;;
9524;SDS011;15940;48.734;9.112;2022-11-15T01:42:46;5.00;;;3.50;;
9524;SDS011;15940;48.734;9.112;2022-11-15T01:45:13;5.57;;;4.17;;
9524;SDS011;15940;48.734;9.112;2022-11-15T01:47:42;3.90;;;3.53;;
9524;SDS011;15940;48.734;9.112;2022-11-15T01:50:18;5.27;;;4.07;;
9524;SDS011;15940;48.734;9.112;2022-11-15T01:52:50;5.20;;;3.53;;
9524;SDS011;15940;48.734;9.112;2022-11-15T01:55:19;5.20;;;3.50;;
9524;SDS011;15940;48.734;9.112;2022-11-15T01:57:59;5.73;;;3.33;;
9524;SDS011;15940;48.734;9.112;2022-11-15T02:00:31;3.63;;;3.13;;
9524;SDS011;15940;48.734;9.112;2022-11-15T02:02:59;3.30;;;3.00;;
9524;SDS011;15940;48.734;9.112;2022-11-15T02:05:27;3.30;;;3.00;;
9524;SDS011;15940;48.734;9.112;2022-11-15T02:07:57;6.17;;;3.27;;
9524;SDS011;15940;48.734;9.112;2022-11-15T02:10:28;7.87;;;3.13;;
9524;SDS011;15940;48.734;9.112;2022-11-15T02:12:56;3.30;;;3.00;;
9524;SDS011;15940;48.734;9.112;2022-11-15T02:15:32;5.87;;;2.90;;
9524;SDS011;15940;48.734;9.112;2022-11-15T02:18:11;3.00;;;2.80;;
9524;SDS011;15940;48.734;9.112;2022-11-15T02:21:05;7.23;;;2.60;;
9524;SDS011;15940;48.734;9.112;2022-11-15T02:23:56;4.03;;;2.70;;
9524;SDS011;15940;48.734;9.112;2022-11-15T02:27:08;3.33;;;3.00;;
9524;SDS011;15940;48.734;9.112;2022-11-15T02:30:24;3.10;;;2.80;;
9524;SDS011;15940;48.734;9.112;2022-11-15T02:33:10;3.37;;;3.07;;
9524;SDS011;15940;48.734;9.112;2022-11-15T02:35:52;3.40;;;3.10;;
9524;SDS011;15940;48.734;9.112;2022-11-15T02:38:29;4.17;;;2.93;;
9524;SDS011;15940;48.734;9.112;2022-11-15T02:41:08;3.27;;;2.93;;
9524;SDS011;15940;48.734;9.112;2022-11-15T02:43:42;3.23;;;2.70;;
9524;SDS011;15940;48.734;9.112;2022-11-15T02:46:27;3.57;;;2.70;;
9524;SDS011;15940;48.734;9.112;2022-11-15T02:49:21;3.07;;;2.87;;
9524;SDS011;15940;48.734;9.112;2022-11-15T02:51:50;3.23;;;2.80;;
9524;SDS011;15940;48.734;9.112;2022-11-15T02:54:21;3.13;;;2.83;;
9524;SDS011;15940;48.734;9.112;2022-11-15T02:56:51;3.33;;;2.73;;
9524;SDS011;15940;48.734;9.112;2022-11-15T02:59:31;2.80;;;2.60;;
9524;SDS011;15940;48.734;9.112;2022-11-15T03:05:41;3.77;;;2.93;;
9524;SDS011;15940;48.734;9.112;2022-11-15T03:08:21;4.20;;;2.63;;
9524;SDS011;15940;48.734;9.112;2022-11-15T03:10:56;3.10;;;2.80;;
9524;SDS011;15940;48.734;9.112;2022-11-15T03:13:36;6.37;;;2.87;;
9524;SDS011;15940;48.734;9.112;2022-11-15T03:16:14;2.97;;;2.60;;
9524;SDS011;15940;48.734;9.112;2022-11-15T03:18:55;3.67;;;2.80;;
9524;SDS011;15940;48.734;9.112;2022-11-15T03:21:29;5.30;;;2.50;;
9524;SDS011;15940;48.734;9.112;2022-11-15T03:23:59;3.47;;;2.83;;
9524;SDS011;15940;48.734;9.112;2022-11-15T03:26:31;4.80;;;2.50;;
9524;SDS011;15940;48.734;9.112;2022-11-15T03:29:01;3.03;;;2.70;;
9524;SDS011;15940;48.734;9.112;2022-11-15T03:31:35;4.07;;;2.63;;
9524;SDS011;15940;48.734;9.112;2022-11-15T03:34:15;4.43;;;2.60;;
9524;SDS011;15940;48.734;9.112;2022-11-15T03:36:52;3.50;;;2.60;;
9524;SDS011;15940;48.734;9.112;2022-11-15T03:39:19;3.67;;;2.50;;
9524;SDS011;15940;48.734;9.112;2022-11-15T03:41:50;3.40;;;2.67;;
9524;SDS011;15940;48.734;9.112;2022-11-15T03:44:33;3.00;;;2.80;;
9524;SDS011;15940;48.734;9.112;2022-11-15T03:47:09;4.30;;;2.83;;
9524;SDS011;15940;48.734;9.112;2022-11-15T03:49:44;5.53;;;2.90;;
9524;SDS011;15940;48.734;9.112;2022-11-15T03:52:21;6.10;;;2.73;;
9524;SDS011;15940;48.734;9.112;2022-11-15T03:54:52;3.07;;;2.47;;
9524;SDS011;15940;48.734;9.112;2022-11-15T03:57:22;2.77;;;2.57;;
9524;SDS011;15940;48.734;9.112;2022-11-15T03:59:49;3.03;;;2.80;;
9524;SDS011;15940;48.734;9.112;2022-11-15T04:02:16;3.23;;;2.60;;
9524;SDS011;15940;48.734;9.112;2022-11-15T04:04:46;7.20;;;2.70;;
9524;SDS011;15940;48.734;9.112;2022-11-15T04:07:15;3.10;;;2.80;;
9524;SDS011;15940;48.734;9.112;2022-11-15T04:09:42;4.13;;;2.60;;
9524;SDS011;15940;48.734;9.112;2022-11-15T04:12:24;5.60;;;3.10;;
9524;SDS011;15940;48.734;9.112;2022-11-15T04:14:59;3.30;;;2.87;;
9524;SDS011;15940;48.734;9.112;2022-11-15T04:17:33;3.40;;;2.73;;
9524;SDS011;15940;48.734;9.112;2022-11-15T04:20:05;4.87;;;3.10;;
9524;SDS011;15940;48.734;9.112;2022-11-15T04:22:57;4.27;;;3.07;;
9524;SDS011;15940;48.734;9.112;2022-11-15T04:25:43;4.27;;;2.80;;
9524;SDS011;15940;48.734;9.112;2022-11-15T04:28:11;5.80;;;2.83;;
9524;SDS011;15940;48.734;9.112;2022-11-15T04:30:39;3.47;;;2.60;;
9524;SDS011;15940;48.734;9.112;2022-11-15T04:33:07;2.80;;;2.50;;
9524;SDS011;15940;48.734;9.112;2022-11-15T04:35:36;4.73;;;3.00;;
9524;SDS011;15940;48.734;9.112;2022-11-15T04:38:04;5.30;;;4.13;;
9524;SDS011;15940;48.734;9.112;2022-11-15T04:40:33;6.07;;;4.23;;
9524;SDS011;15940;48.734;9.112;2022-11-15T04:43:00;6.30;;;4.17;;
9524;SDS011;15940;48.734;9.112;2022-11-15T04:45:34;7.00;;;4.77;;
9524;SDS011;15940;48.734;9.112;2022-11-15T04:48:01;5.47;;;4.43;;
9524;SDS011;15940;48.734;9.112;2022-11-15T04:50:31;6.33;;;4.20;;
9524;SDS011;15940;48.734;9.112;2022-11-15T04:52:59;5.97;;;3.30;;
9524;SDS011;15940;48.734;9.112;2022-11-15T04:55:26;4.30;;;2.80;;
9524;SDS011;15940;48.734;9.112;2022-11-15T04:58:04;3.97;;;3.07;;
9524;SDS011;15940;48.734;9.112;2022-11-15T05:00:31;4.93;;;3.10;;
9524;SDS011;15940;48.734;9.112;2022-11-15T05:02:59;5.00;;;2.90;;
9524;SDS011;15940;48.734;9.112;2022-11-15T05:05:44;3.67;;;2.87;;
9524;SDS011;15940;48.734;9.112;2022-11-15T05:08:21;2.37;;;2.17;;
9524;SDS011;15940;48.734;9.112;2022-11-15T05:10:49;3.27;;;2.53;;
9524;SDS011;15940;48.734;9.112;2022-11-15T05:13:16;2.60;;;2.40;;
9524;SDS011;15940;48.734;9.112;2022-11-15T05:15:43;3.63;;;2.70;;
9524;SDS011;15940;48.734;9.112;2022-11-15T05:18:10;5.93;;;3.87;;
9524;SDS011;15940;48.734;9.112;2022-11-15T05:20:37;6.53;;;4.83;;
9524;SDS011;15940;48.734;9.112;2022-11-15T05:23:04;4.93;;;4.43;;
9524;SDS011;15940;48.734;9.112;2022-11-15T05:25:35;6.73;;;3.90;;
9524;SDS011;15940;48.734;9.112;2022-11-15T05:28:03;4.40;;;3.87;;
9524;SDS011;15940;48.734;9.112;2022-11-15T05:30:30;4.73;;;4.13;;
9524;SDS011;15940;48.734;9.112;2022-11-15T05:32:57;5.40;;;3.47;;
9524;SDS011;15940;48.734;9.112;2022-11-15T05:35:26;6.73;;;3.07;;
9524;SDS011;15940;48.734;9.112;2022-11-15T05:38:00;4.13;;;3.10;;
9524;SDS011;15940;48.734;9.112;2022-11-15T05:40:28;3.10;;;2.80;;
9524;SDS011;15940;48.734;9.112;2022-11-15T05:43:00;2.90;;;2.60;;
9524;SDS011;15940;48.734;9.112;2022-11-15T05:45:30;3.10;;;2.80;;
9524;SDS011;15940;48.734;9.112;2022-11-15T05:48:00;3.23;;;2.70;;
9524;SDS011;15940;48.734;9.112;2022-11-15T05:50:38;4.90;;;2.73;;
9524;SDS011;15940;48.734;9.112;2022-11-15T05:53:10;3.53;;;2.50;;
9524;SDS011;15940;48.734;9.112;2022-11-15T05:55:42;3.33;;;2.70;;
9524;SDS011;15940;48.734;9.112;2022-11-15T05:58:21;4.90;;;2.73;;
9524;SDS011;15940;48.734;9.112;2022-11-15T06:00:49;4.57;;;2.67;;
9524;SDS011;15940;48.734;9.112;2022-11-15T06:03:18;3.87;;;2.70;;
9524;SDS011;15940;48.734;9.112;2022-11-15T06:05:45;3.03;;;2.57;;
9524;SDS011;15940;48.734;9.112;2022-11-15T06:08:12;4.33;;;2.67;;
9524;SDS011;15940;48.734;9.112;2022-11-15T06:10:39;2.80;;;2.60;;
9524;SDS011;15940;48.734;9.112;2022-11-15T06:13:06;3.37;;;2.80;;
9524;SDS011;15940;48.734;9.112;2022-11-15T06:15:36;2.80;;;2.53;;
9524;SDS011;15940;48.734;9.112;2022-11-15T06:18:04;3.13;;;2.83;;
9524;SDS011;15940;48.734;9.112;2022-11-15T06:20:31;4.70;;;3.13;;
9524;SDS011;15940;48.734;9.112;2022-11-15T06:22:58;3.90;;;3.00;;
9524;SDS011;15940;48.734;9.112;2022-11-15T06:25:32;5.27;;;2.93;;
9524;SDS011;15940;48.734;9.112;2022-11-15T06:27:59;3.70;;;2.97;;
9524;SDS011;15940;48.734;9.112;2022-11-15T06:30:26;3.90;;;2.87;;
9524;SDS011;15940;48.734;9.112;2022-11-15T06:33:03;3.07;;;2.60;;
9524;SDS011;15940;48.734;9.112;2022-11-15T06:35:33;3.40;;;2.83;;
9524;SDS011;15940;48.734;9.112;2022-11-15T06:38:03;3.63;;;2.93;;
9524;SDS011;15940;48.734;9.112;2022-11-15T06:40:34;4.03;;;3.07;;
9524;SDS011;15940;48.734;9.112;2022-11-15T06:43:03;4.30;;;3.03;;
9524;SDS011;15940;48.734;9.112;2022-11-15T06:45:32;6.53;;;3.07;;
9524;SDS011;15940;48.734;9.112;2022-11-15T06:48:02;11.43;;;3.20;;
9524;SDS011;15940;48.734;9.112;2022-11-15T06:50:30;2.80;;;2.60;;
9524;SDS011;15940;48.734;9.112;2022-11-15T06:53:00;3.47;;;3.17;;
9524;SDS011;15940;48.734;9.112;2022-11-15T06:55:29;6.53;;;3.40;;
9524;SDS011;15940;48.734;9.112;2022-11-15T06:57:56;5.07;;;3.37;;
9524;SDS011;15940;48.734;9.112;2022-11-15T07:00:23;4.75;;;3.20;;
9524;SDS011;15940;48.734;9.112;2022-11-15T07:02:51;8.30;;;3.60;;
9524;SDS011;15940;48.734;9.112;2022-11-15T07:05:20;5.93;;;3.63;;
9524;SDS011;15940;48.734;9.112;2022-11-15T07:07:56;7.13;;;3.80;;
9524;SDS011;15940;48.734;9.112;2022-11-15T07:10:29;5.73;;;3.50;;
9524;SDS011;15940;48.734;9.112;2022-11-15T07:12:56;8.67;;;3.60;;
9524;SDS011;15940;48.734;9.112;2022-11-15T07:15:25;5.47;;;3.30;;
9524;SDS011;15940;48.734;9.112;2022-11-15T07:17:52;5.33;;;3.83;;
9524;SDS011;15940;48.734;9.112;2022-11-15T07:20:21;4.90;;;3.50;;
9524;SDS011;15940;48.734;9.112;2022-11-15T07:22:48;10.10;;;3.97;;
9524;SDS011;15940;48.734;9.112;2022-11-15T07:25:15;9.23;;;3.73;;
9524;SDS011;15940;48.734;9.112;2022-11-15T07:27:42;6.50;;;3.93;;
9524;SDS011;15940;48.734;9.112;2022-11-15T07:30:10;4.83;;;3.33;;
9524;SDS011;15940;48.734;9.112;2022-11-15T07:32:38;4.87;;;3.17;;
9524;SDS011;15940;48.734;9.112;2022-11-15T07:35:05;6.87;;;3.60;;
9524;SDS011;15940;48.734;9.112;2022-11-15T07:37:35;5.53;;;3.73;;
9524;SDS011;15940;48.734;9.112;2022-11-15T07:40:03;5.80;;;3.63;;
9524;SDS011;15940;48.734;9.112;2022-11-15T07:42:33;5.13;;;3.93;;
9524;SDS011;15940;48.734;9.112;2022-11-15T07:45:17;4.50;;;3.30;;
9524;SDS011;15940;48.734;9.112;2022-11-15T07:47:45;6.43;;;4.30;;
9524;SDS011;15940;48.734;9.112;2022-11-15T07:50:12;9.53;;;4.93;;
9524;SDS011;15940;48.734;9.112;2022-11-15T07:52:44;6.10;;;3.67;;
9524;SDS011;15940;48.734;9.112;2022-11-15T07:55:13;6.13;;;3.73;;
9524;SDS011;15940;48.734;9.112;2022-11-15T07:57:40;5.10;;;3.40;;
9524;SDS011;15940;48.734;9.112;2022-11-15T08:00:08;6.27;;;3.50;;
9524;SDS011;15940;48.734;9.112;2022-11-15T08:02:36;5.70;;;3.53;;
9524;SDS011;15940;48.734;9.112;2022-11-15T08:05:04;6.03;;;2.83;;
9524;SDS011;15940;48.734;9.112;2022-11-15T08:07:32;3.50;;;2.97;;
9524;SDS011;15940;48.734;9.112;2022-11-15T08:10:00;6.83;;;3.00;;
9524;SDS011;15940;48.734;9.112;2022-11-15T08:12:29;3.40;;;2.70;;
9524;SDS011;15940;48.734;9.112;2022-11-15T08:14:56;2.97;;;2.40;;
9524;SDS011;15940;48.734;9.112;2022-11-15T08:17:23;3.87;;;2.70;;
9524;SDS011;15940;48.734;9.112;2022-11-15T08:19:50;7.23;;;3.20;;
9524;SDS011;15940;48.734;9.112;2022-11-15T08:22:17;2.93;;;2.63;;
9524;SDS011;15940;48.734;9.112;2022-11-15T08:24:45;4.07;;;2.73;;
9524;SDS011;15940;48.734;9.112;2022-11-15T08:27:14;4.07;;;2.57;;
9524;SDS011;15940;48.734;9.112;2022-11-15T08:29:41;3.60;;;2.43;;
9524;SDS011;15940;48.734;9.112;2022-11-15T08:32:08;7.50;;;2.90;;
9524;SDS011;15940;48.734;9.112;2022-11-15T08:34:36;4.73;;;2.50;;
9524;SDS011;15940;48.734;9.112;2022-11-15T08:37:09;3.17;;;2.60;;
9524;SDS011;15940;48.734;9.112;2022-11-15T08:39:36;3.63;;;2.30;;
9524;SDS011;15940;48.734;9.112;2022-11-15T08:42:04;3.03;;;2.40;;
9524;SDS011;15940;48.734;9.112;2022-11-15T08:44:38;3.67;;;2.50;;
9524;SDS011;15940;48.734;9.112;2022-11-15T08:47:08;4.70;;;2.43;;
9524;SDS011;15940;48.734;9.112;2022-11-15T08:49:38;3.10;;;2.53;;
9524;SDS011;15940;48.734;9.112;2022-11-15T08:52:07;5.80;;;2.53;;
9524;SDS011;15940;48.734;9.112;2022-11-15T08:54:37;2.60;;;2.20;;
9524;SDS011;15940;48.734;9.112;2022-11-15T08:57:04;4.00;;;2.13;;
9524;SDS011;15940;48.734;9.112;2022-11-15T08:59:34;2.17;;;2.00;;
9524;SDS011;15940;48.734;9.112;2022-11-15T09:02:03;4.20;;;2.57;;
9524;SDS011;15940;48.734;9.112;2022-11-15T09:04:30;4.57;;;2.50;;
9524;SDS011;15940;48.734;9.112;2022-11-15T09:06:58;3.93;;;2.57;;
9524;SDS011;15940;48.734;9.112;2022-11-15T09:09:25;2.53;;;2.27;;
9524;SDS011;15940;48.734;9.112;2022-11-15T09:11:52;2.77;;;2.03;;
9524;SDS011;15940;48.734;9.112;2022-11-15T09:14:19;2.70;;;2.17;;
9524;SDS011;15940;48.734;9.112;2022-11-15T09:16:46;3.13;;;2.80;;
9524;SDS011;15940;48.734;9.112;2022-11-15T09:19:16;2.50;;;2.00;;
9524;SDS011;15940;48.734;9.112;2022-11-15T09:21:43;1.80;;;1.70;;
9524;SDS011;15940;48.734;9.112;2022-11-15T09:24:10;1.83;;;1.73;;
9524;SDS011;15940;48.734;9.112;2022-11-15T09:26:38;2.30;;;1.90;;
9524;SDS011;15940;48.734;9.112;2022-11-15T09:29:06;2.63;;;1.80;;
9524;SDS011;15940;48.734;9.112;2022-11-15T09:31:34;2.97;;;1.80;;
9524;SDS011;15940;48.734;9.112;2022-11-15T09:34:02;4.70;;;1.83;;
9524;SDS011;15940;48.734;9.112;2022-11-15T09:36:31;1.50;;;1.40;;
9524;SDS011;15940;48.734;9.112;2022-11-15T09:38:58;3.73;;;1.80;;
9524;SDS011;15940;48.734;9.112;2022-11-15T09:41:35;1.50;;;1.40;;
9524;SDS011;15940;48.734;9.112;2022-11-15T09:44:41;5.03;;;1.70;;
9524;SDS011;15940;48.734;9.112;2022-11-15T09:47:35;1.70;;;1.60;;
9524;SDS011;15940;48.734;9.112;2022-11-15T09:50:28;1.90;;;1.53;;
9524;SDS011;15940;48.734;9.112;2022-11-15T09:53:10;2.40;;;1.50;;
9524;SDS011;15940;48.734;9.112;2022-11-15T09:55:51;2.53;;;1.57;;
9524;SDS011;15940;48.734;9.112;2022-11-15T09:58:28;1.70;;;1.60;;
9524;SDS011;15940;48.734;9.112;2022-11-15T10:01:06;2.93;;;1.90;;
9524;SDS011;15940;48.734;9.112;2022-11-15T10:03:45;3.27;;;1.70;;
9524;SDS011;15940;48.734;9.112;2022-11-15T10:06:15;4.57;;;1.50;;
9524;SDS011;15940;48.734;9.112;2022-11-15T10:08:53;1.90;;;1.70;;
9524;SDS011;15940;48.734;9.112;2022-11-15T10:11:27;1.77;;;1.50;;
9524;SDS011;15940;48.734;9.112;2022-11-15T10:14:02;3.80;;;1.67;;
9524;SDS011;15940;48.734;9.112;2022-11-15T10:20:11;4.63;;;1.57;;
9524;SDS011;15940;48.734;9.112;2022-11-15T10:22:44;1.50;;;1.40;;
9524;SDS011;15940;48.734;9.112;2022-11-15T10:25:22;1.63;;;1.53;;
9524;SDS011;15940;48.734;9.112;2022-11-15T10:27:53;2.20;;;1.50;;
9524;SDS011;15940;48.734;9.112;2022-11-15T10:30:30;3.03;;;1.60;;
9524;SDS011;15940;48.734;9.112;2022-11-15T10:33:17;3.30;;;1.80;;
9524;SDS011;15940;48.734;9.112;2022-11-15T10:38:56;3.93;;;1.63;;
9524;SDS011;15940;48.734;9.112;2022-11-15T10:47:06;2.03;;;1.90;;
9524;SDS011;15940;48.734;9.112;2022-11-15T10:49:54;2.33;;;2.00;;
9524;SDS011;15940;48.734;9.112;2022-11-15T10:52:53;5.97;;;2.07;;
9524;SDS011;15940;48.734;9.112;2022-11-15T10:55:25;2.67;;;1.90;;
9524;SDS011;15940;48.734;9.112;2022-11-15T10:57:56;2.80;;;2.00;;
9524;SDS011;15940;48.734;9.112;2022-11-15T11:00:33;2.60;;;1.70;;
9524;SDS011;15940;48.734;9.112;2022-11-15T11:03:05;2.57;;;1.97;;
9524;SDS011;15940;48.734;9.112;2022-11-15T11:06:04;5.60;;;2.07;;
9524;SDS011;15940;48.734;9.112;2022-11-15T11:08:35;3.37;;;2.03;;
9524;SDS011;15940;48.734;9.112;2022-11-15T11:11:03;4.50;;;2.30;;
9524;SDS011;15940;48.734;9.112;2022-11-15T11:13:34;3.27;;;2.10;;
9524;SDS011;15940;48.734;9.112;2022-11-15T11:16:19;3.20;;;1.90;;
9524;SDS011;15940;48.734;9.112;2022-11-15T11:19:15;5.00;;;2.07;;
9524;SDS011;15940;48.734;9.112;2022-11-15T11:22:11;4.13;;;1.87;;
9524;SDS011;15940;48.734;9.112;2022-11-15T11:24:51;4.83;;;2.00;;
9524;SDS011;15940;48.734;9.112;2022-11-15T11:27:36;2.07;;;1.87;;
9524;SDS011;15940;48.734;9.112;2022-11-15T11:30:17;3.60;;;1.90;;
9524;SDS011;15940;48.734;9.112;2022-11-15T11:32:57;3.77;;;2.23;;
9524;SDS011;15940;48.734;9.112;2022-11-15T11:35:45;3.67;;;2.40;;
9524;SDS011;15940;48.734;9.112;2022-11-15T11:38:32;2.70;;;2.10;;
9524;SDS011;15940;48.734;9.112;2022-11-15T11:41:46;2.73;;;1.67;;
9524;SDS011;15940;48.734;9.112;2022-11-15T11:44:28;1.80;;;1.60;;
9524;SDS011;15940;48.734;9.112;2022-11-15T11:47:07;2.27;;;1.60;;
9524;SDS011;15940;48.734;9.112;2022-11-15T11:49:39;1.93;;;1.70;;
9524;SDS011;15940;48.734;9.112;2022-11-15T11:52:17;2.20;;;1.50;;
9524;SDS011;15940;48.734;9.112;2022-11-15T11:57:43;3.17;;;1.60;;
9524;SDS011;15940;48.734;9.112;2022-11-15T12:00:20;3.90;;;1.93;;
9524;SDS011;15940;48.734;9.112;2022-11-15T12:02:59;5.43;;;2.00;;
9524;SDS011;15940;48.734;9.112;2022-11-15T12:05:37;3.70;;;1.80;;
9524;SDS011;15940;48.734;9.112;2022-11-15T12:08:17;3.43;;;1.60;;
9524;SDS011;15940;48.734;9.112;2022-11-15T12:11:00;2.40;;;1.70;;
9524;SDS011;15940;48.734;9.112;2022-11-15T12:13:41;4.10;;;2.10;;
9524;SDS011;15940;48.734;9.112;2022-11-15T12:16:11;2.80;;;1.80;;
9524;SDS011;15940;48.734;9.112;2022-11-15T12:18:51;1.23;;;1.20;;
9524;SDS011;15940;48.734;9.112;2022-11-15T12:21:22;3.67;;;1.40;;
9524;SDS011;15940;48.734;9.112;2022-11-15T12:24:04;5.57;;;1.60;;
9524;SDS011;15940;48.734;9.112;2022-11-15T12:26:39;2.73;;;1.47;;
9524;SDS011;15940;48.734;9.112;2022-11-15T12:29:15;1.57;;;1.47;;
9524;SDS011;15940;48.734;9.112;2022-11-15T12:31:50;1.40;;;1.20;;
9524;SDS011;15940;48.734;9.112;2022-11-15T12:34:41;1.77;;;1.30;;
9524;SDS011;15940;48.734;9.112;2022-11-15T12:46:12;2.70;;;1.40;;
9524;SDS011;15940;48.734;9.112;2022-11-15T12:49:46;1.50;;;1.40;;
9524;SDS011;15940;48.734;9.112;2022-11-15T12:52:14;1.60;;;1.50;;
9524;SDS011;15940;48.734;9.112;2022-11-15T12:57:50;3.37;;;1.47;;
9524;SDS011;15940;48.734;9.112;2022-11-15T13:03:28;2.20;;;1.50;;
9524;SDS011;15940;48.734;9.112;2022-11-15T13:06:33;5.87;;;1.70;;
9524;SDS011;15940;48.734;9.112;2022-11-15T13:15:36;2.33;;;1.50;;
9524;SDS011;15940;48.734;9.112;2022-11-15T13:18:35;1.87;;;1.60;;
9524;SDS011;15940;48.734;9.112;2022-11-15T13:21:22;1.67;;;1.50;;
9524;SDS011;15940;48.734;9.112;2022-11-15T13:27:10;2.13;;;1.73;;
9524;SDS011;15940;48.734;9.112;2022-11-15T13:29:48;2.47;;;2.10;;
9524;SDS011;15940;48.734;9.112;2022-11-15T13:32:19;3.13;;;2.10;;
9524;SDS011;15940;48.734;9.112;2022-11-15T13:34:50;4.43;;;3.20;;
9524;SDS011;15940;48.734;9.112;2022-11-15T13:37:30;7.57;;;3.73;;
9524;SDS011;15940;48.734;9.112;2022-11-15T13:40:18;8.07;;;4.17;;
9524;SDS011;15940;48.734;9.112;2022-11-15T13:42:53;2.67;;;2.30;;
9524;SDS011;15940;48.734;9.112;2022-11-15T13:45:25;2.17;;;2.00;;
9524;SDS011;15940;48.734;9.112;2022-11-15T13:47:54;2.70;;;1.90;;
9524;SDS011;15940;48.734;9.112;2022-11-15T13:50:26;1.63;;;1.50;;
9524;SDS011;15940;48.734;9.112;2022-11-15T13:53:00;2.80;;;1.70;;
9524;SDS011;15940;48.734;9.112;2022-11-15T13:55:32;2.73;;;1.63;;
9524;SDS011;15940;48.734;9.112;2022-11-15T13:58:02;2.63;;;2.10;;
9524;SDS011;15940;48.734;9.112;2022-11-15T14:00:35;2.90;;;2.60;;
9524;SDS011;15940;48.734;9.112;2022-11-15T14:03:15;4.57;;;3.50;;
9524;SDS011;15940;48.734;9.112;2022-11-15T14:05:46;5.20;;;4.13;;
9524;SDS011;15940;48.734;9.112;2022-11-15T14:08:42;10.20;;;5.33;;
9524;SDS011;15940;48.734;9.112;2022-11-15T14:11:28;5.97;;;5.00;;
9524;SDS011;15940;48.734;9.112;2022-11-15T14:14:10;11.07;;;4.73;;
9524;SDS011;15940;48.734;9.112;2022-11-15T14:16:51;9.37;;;4.67;;
9524;SDS011;15940;48.734;9.112;2022-11-15T14:22:07;10.40;;;5.70;;
9524;SDS011;15940;48.734;9.112;2022-11-15T14:27:43;7.57;;;4.70;;
9524;SDS011;15940;48.734;9.112;2022-11-15T14:30:31;10.23;;;4.90;;
9524;SDS011;15940;48.734;9.112;2022-11-15T14:32:58;6.03;;;4.63;;
9524;SDS011;15940;48.734;9.112;2022-11-15T14:35:25;8.57;;;5.10;;
9524;SDS011;15940;48.734;9.112;2022-11-15T14:37:52;7.50;;;4.33;;
9524;SDS011;15940;48.734;9.112;2022-11-15T14:40:20;7.10;;;3.70;;
9524;SDS011;15940;48.734;9.112;2022-11-15T14:42:51;6.37;;;4.20;;
9524;SDS011;15940;48.734;9.112;2022-11-15T14:45:19;5.70;;;4.83;;
9524;SDS011;15940;48.734;9.112;2022-11-15T14:47:50;8.40;;;4.53;;
9524;SDS011;15940;48.734;9.112;2022-11-15T14:50:18;7.37;;;4.23;;
9524;SDS011;15940;48.734;9.112;2022-11-15T14:52:47;4.40;;;4.00;;
9524;SDS011;15940;48.734;9.112;2022-11-15T14:55:16;6.63;;;4.63;;
9524;SDS011;15940;48.734;9.112;2022-11-15T14:57:48;7.23;;;4.40;;
9524;SDS011;15940;48.734;9.112;2022-11-15T15:00:22;6.37;;;4.07;;
9524;SDS011;15940;48.734;9.112;2022-11-15T15:02:52;7.10;;;4.30;;
9524;SDS011;15940;48.734;9.112;2022-11-15T15:05:22;11.67;;;4.30;;
9524;SDS011;15940;48.734;9.112;2022-11-15T15:07:57;6.63;;;4.30;;
9524;SDS011;15940;48.734;9.112;2022-11-15T15:10:26;8.90;;;4.10;;
9524;SDS011;15940;48.734;9.112;2022-11-15T15:13:03;9.83;;;4.17;;
9524;SDS011;15940;48.734;9.112;2022-11-15T15:15:33;9.33;;;5.10;;
9524;SDS011;15940;48.734;9.112;2022-11-15T15:18:11;10.57;;;8.83;;
9524;SDS011;15940;48.734;9.112;2022-11-15T15:24:22;11.10;;;7.17;;
9524;SDS011;15940;48.734;9.112;2022-11-15T15:26:50;13.07;;;8.30;;
9524;SDS011;15940;48.734;9.112;2022-11-15T15:29:21;26.20;;;22.83;;
9524;SDS011;15940;48.734;9.112;2022-11-15T15:31:50;14.20;;;10.97;;
9524;SDS011;15940;48.734;9.112;2022-11-15T15:34:18;11.03;;;6.77;;
9524;SDS011;15940;48.734;9.112;2022-11-15T15:36:48;5.80;;;5.20;;
9524;SDS011;15940;48.734;9.112;2022-11-15T15:39:17;7.17;;;5.00;;
9524;SDS011;15940;48.734;9.112;2022-11-15T15:41:45;8.23;;;5.20;;
9524;SDS011;15940;48.734;9.112;2022-11-15T15:44:12;8.10;;;6.40;;
9524;SDS011;15940;48.734;9.112;2022-11-15T15:46:42;7.70;;;5.50;;
9524;SDS011;15940;48.734;9.112;2022-11-15T15:49:09;10.40;;;5.20;;
9524;SDS011;15940;48.734;9.112;2022-11-15T15:51:36;7.93;;;7.10;;
9524;SDS011;15940;48.734;9.112;2022-11-15T15:54:03;7.37;;;5.17;;
9524;SDS011;15940;48.734;9.112;2022-11-15T15:56:31;7.30;;;5.00;;
9524;SDS011;15940;48.734;9.112;2022-11-15T15:59:01;8.37;;;7.00;;
9524;SDS011;15940;48.734;9.112;2022-11-15T16:01:28;7.87;;;5.10;;
9524;SDS011;15940;48.734;9.112;2022-11-15T16:03:59;7.40;;;5.20;;
9524;SDS011;15940;48.734;9.112;2022-11-15T16:06:32;10.47;;;5.80;;
9524;SDS011;15940;48.734;9.112;2022-11-15T16:09:04;8.67;;;7.20;;
9524;SDS011;15940;48.734;9.112;2022-11-15T16:11:32;13.53;;;7.50;;
9524;SDS011;15940;48.734;9.112;2022-11-15T16:13:59;11.97;;;7.67;;
9524;SDS011;15940;48.734;9.112;2022-11-15T16:16:27;13.97;;;9.17;;
9524;SDS011;15940;48.734;9.112;2022-11-15T16:18:57;11.90;;;7.90;;
9524;SDS011;15940;48.734;9.112;2022-11-15T16:21:26;11.33;;;6.00;;
9524;SDS011;15940;48.734;9.112;2022-11-15T16:23:53;5.63;;;4.90;;
9524;SDS011;15940;48.734;9.112;2022-11-15T16:26:21;10.23;;;5.30;;
9524;SDS011;15940;48.734;9.112;2022-11-15T16:28:51;11.70;;;6.23;;